createdAt,value
2024-03-29T00:00:03.096Z,2.37
2024-03-29T00:00:52.302Z,1.83
2024-03-29T00:01:43.782Z,2.17
2024-03-29T00:02:33.467Z,1.80
2024-03-29T00:03:23.044Z,1.73
2024-03-29T00:04:12.778Z,2.10
2024-03-29T00:05:03.557Z,1.90
2024-03-29T00:05:53.311Z,2.00
2024-03-29T00:06:42.808Z,1.83
2024-03-29T00:07:32.077Z,2.00
2024-03-29T00:08:21.324Z,2.07
2024-03-29T00:09:10.598Z,2.07
2024-03-29T00:10:00.300Z,1.70
2024-03-29T00:10:49.998Z,1.83
2024-03-29T00:11:39.343Z,2.00
2024-03-29T00:12:28.483Z,2.20
2024-03-29T00:13:17.850Z,1.57
2024-03-29T00:14:07.425Z,1.47
2024-03-29T00:14:56.957Z,1.60
2024-03-29T00:15:46.703Z,1.37
2024-03-29T00:16:36.048Z,1.40
2024-03-29T00:17:25.262Z,1.17
2024-03-29T00:18:14.867Z,1.13
2024-03-29T00:19:04.945Z,1.00
2024-03-29T00:19:54.370Z,1.33
2024-03-29T00:20:44.076Z,1.30
2024-03-29T00:21:33.733Z,1.40
2024-03-29T00:22:23.055Z,1.27
2024-03-29T00:23:12.377Z,1.20
2024-03-29T00:24:01.724Z,1.33
2024-03-29T00:24:51.229Z,1.27
2024-03-29T00:25:41.311Z,1.57
2024-03-29T00:26:30.506Z,1.30
2024-03-29T00:27:20.603Z,1.27
2024-03-29T00:28:09.725Z,1.13
2024-03-29T00:28:59.721Z,1.20
2024-03-29T00:29:52.824Z,1.07
2024-03-29T00:30:42.421Z,1.10
2024-03-29T00:31:31.666Z,1.37
2024-03-29T00:32:24.347Z,1.47
2024-03-29T00:33:14.045Z,1.17
2024-03-29T00:34:03.835Z,1.33
2024-03-29T00:34:54.458Z,1.37
2024-03-29T00:35:43.698Z,1.47
2024-03-29T00:36:33.346Z,1.57
2024-03-29T00:37:23.054Z,1.60
2024-03-29T00:38:13.096Z,1.40
2024-03-29T00:39:02.797Z,1.47
2024-03-29T00:39:52.207Z,1.40
2024-03-29T00:40:41.522Z,1.43
2024-03-29T00:41:30.949Z,1.53
2024-03-29T00:42:21.043Z,1.43
2024-03-29T00:43:10.494Z,1.40
2024-03-29T00:43:59.830Z,1.17
2024-03-29T00:44:49.450Z,1.37
2024-03-29T00:45:38.931Z,1.33
2024-03-29T00:46:28.894Z,1.20
2024-03-29T00:47:18.281Z,1.10
2024-03-29T00:48:08.119Z,1.30
2024-03-29T00:48:57.706Z,1.13
2024-03-29T00:49:47.265Z,1.23
2024-03-29T00:50:37.537Z,1.43
2024-03-29T00:51:29.886Z,1.37
2024-03-29T00:52:19.505Z,1.67
2024-03-29T00:53:09.145Z,1.47
2024-03-29T00:53:58.656Z,1.33
2024-03-29T00:54:48.050Z,1.27
2024-03-29T00:55:37.710Z,1.53
2024-03-29T00:56:27.447Z,1.60
2024-03-29T00:57:17.251Z,1.77
2024-03-29T00:58:07.285Z,1.67
2024-03-29T00:58:56.918Z,1.90
2024-03-29T00:59:46.797Z,2.00
2024-03-29T01:00:36.152Z,1.80
2024-03-29T01:01:25.879Z,1.90
2024-03-29T01:02:15.192Z,1.57
2024-03-29T01:03:04.359Z,1.77
2024-03-29T01:03:53.855Z,1.47
2024-03-29T01:04:43.464Z,1.57
2024-03-29T01:05:33.251Z,1.63
2024-03-29T01:06:22.693Z,1.53
2024-03-29T01:07:12.261Z,1.40
2024-03-29T01:08:01.684Z,1.17
2024-03-29T01:08:51.189Z,1.10
2024-03-29T01:09:41.099Z,1.07
2024-03-29T01:11:19.934Z,1.13
2024-03-29T01:12:09.901Z,1.33
2024-03-29T01:12:59.039Z,1.13
2024-03-29T01:13:49.044Z,1.17
2024-03-29T01:14:38.477Z,0.97
2024-03-29T01:15:28.886Z,1.20
2024-03-29T01:16:18.288Z,1.17
2024-03-29T01:17:07.580Z,0.77
2024-03-29T01:17:56.906Z,1.23
2024-03-29T01:18:46.948Z,1.07
2024-03-29T01:19:36.614Z,1.23
2024-03-29T01:20:25.927Z,1.20
2024-03-29T01:21:18.021Z,1.10
2024-03-29T01:22:08.276Z,1.13
2024-03-29T01:22:57.991Z,1.23
2024-03-29T01:23:47.294Z,1.07
2024-03-29T01:24:36.609Z,1.07
2024-03-29T01:25:27.457Z,1.13
2024-03-29T01:26:17.435Z,1.13
2024-03-29T01:27:07.160Z,1.33
2024-03-29T01:27:57.008Z,1.37
2024-03-29T01:28:46.871Z,1.47
2024-03-29T01:29:36.361Z,1.23
2024-03-29T01:30:27.009Z,1.53
2024-03-29T01:31:16.600Z,1.27
2024-03-29T01:32:06.737Z,1.43
2024-03-29T01:32:56.046Z,1.43
2024-03-29T01:33:45.351Z,1.43
2024-03-29T01:34:35.002Z,1.30
2024-03-29T01:35:24.268Z,1.33
2024-03-29T01:36:13.687Z,1.60
2024-03-29T01:37:03.307Z,1.40
2024-03-29T01:37:52.892Z,1.47
2024-03-29T01:38:45.529Z,1.43
2024-03-29T01:39:35.203Z,1.47
2024-03-29T01:40:24.804Z,1.27
2024-03-29T01:41:14.045Z,1.73
2024-03-29T01:42:03.699Z,1.37
2024-03-29T01:42:53.883Z,1.23
2024-03-29T01:43:43.623Z,1.07
2024-03-29T01:44:33.286Z,1.13
2024-03-29T01:45:23.002Z,1.27
2024-03-29T01:46:12.652Z,0.97
2024-03-29T01:47:02.412Z,0.87
2024-03-29T01:47:51.883Z,1.00
2024-03-29T01:48:41.654Z,0.90
2024-03-29T01:49:31.454Z,1.07
2024-03-29T01:50:21.004Z,0.97
2024-03-29T01:51:14.053Z,0.93
2024-03-29T01:52:04.265Z,0.93
2024-03-29T01:52:53.923Z,0.80
2024-03-29T01:53:44.884Z,1.00
2024-03-29T01:54:34.603Z,1.00
2024-03-29T01:55:24.322Z,0.90
2024-03-29T01:56:16.099Z,0.97
2024-03-29T01:57:06.029Z,1.03
2024-03-29T01:57:56.773Z,0.87
2024-03-29T01:58:46.439Z,0.70
2024-03-29T01:59:37.611Z,0.73
2024-03-29T02:00:27.718Z,0.63
2024-03-29T02:01:17.344Z,0.63
2024-03-29T02:02:06.977Z,0.93
2024-03-29T02:02:57.155Z,0.73
2024-03-29T02:03:47.572Z,0.60
2024-03-29T02:04:37.424Z,0.77
2024-03-29T02:05:27.903Z,0.83
2024-03-29T02:06:17.699Z,0.80
2024-03-29T02:07:07.804Z,0.77
2024-03-29T02:07:57.562Z,0.57
2024-03-29T02:08:50.228Z,0.57
2024-03-29T02:09:39.986Z,0.50
2024-03-29T02:10:29.859Z,0.67
2024-03-29T02:11:20.093Z,0.67
2024-03-29T02:12:09.569Z,0.70
2024-03-29T02:12:59.031Z,0.73
2024-03-29T02:13:49.923Z,0.53
2024-03-29T02:14:40.796Z,0.63
2024-03-29T02:15:31.297Z,0.60
2024-03-29T02:16:20.634Z,0.70
2024-03-29T02:17:10.057Z,0.63
2024-03-29T02:17:59.572Z,0.70
2024-03-29T02:18:48.767Z,0.57
2024-03-29T02:19:38.132Z,0.50
2024-03-29T02:20:37.878Z,0.57
2024-03-29T02:21:30.468Z,0.63
2024-03-29T02:22:22.322Z,0.60
2024-03-29T02:23:18.555Z,0.60
2024-03-29T02:24:08.280Z,0.63
2024-03-29T02:24:58.031Z,0.60
2024-03-29T02:25:47.474Z,0.63
2024-03-29T02:26:41.445Z,0.50
2024-03-29T02:27:31.021Z,0.53
2024-03-29T02:28:22.418Z,0.63
2024-03-29T02:29:12.586Z,0.57
2024-03-29T02:30:03.167Z,0.53
2024-03-29T02:30:52.668Z,0.90
2024-03-29T02:31:42.176Z,0.50
2024-03-29T02:32:31.609Z,0.53
2024-03-29T02:33:21.714Z,0.80
2024-03-29T02:34:11.254Z,0.80
2024-03-29T02:35:00.581Z,0.43
2024-03-29T02:35:49.786Z,0.63
2024-03-29T02:36:39.471Z,0.77
2024-03-29T02:37:29.679Z,0.70
2024-03-29T02:38:20.145Z,0.53
2024-03-29T02:39:10.033Z,0.77
2024-03-29T02:39:59.425Z,0.67
2024-03-29T02:40:49.219Z,0.80
2024-03-29T02:41:38.692Z,0.77
2024-03-29T02:42:27.990Z,0.70
2024-03-29T02:43:17.605Z,0.73
2024-03-29T02:44:06.820Z,0.60
2024-03-29T02:44:56.371Z,0.53
2024-03-29T02:45:46.161Z,0.70
2024-03-29T02:46:35.798Z,0.83
2024-03-29T02:47:25.212Z,0.63
2024-03-29T02:48:14.536Z,0.83
2024-03-29T02:49:03.910Z,0.73
2024-03-29T02:49:53.182Z,0.77
2024-03-29T02:50:42.907Z,0.80
2024-03-29T02:51:32.384Z,0.87
2024-03-29T02:52:22.030Z,0.67
2024-03-29T02:53:11.310Z,0.77
2024-03-29T02:54:00.943Z,0.70
2024-03-29T02:54:50.571Z,0.77
2024-03-29T02:55:41.703Z,0.80
2024-03-29T02:56:31.296Z,0.83
2024-03-29T02:57:20.962Z,0.83
2024-03-29T02:58:10.236Z,1.03
2024-03-29T02:58:59.735Z,0.80
2024-03-29T02:59:49.537Z,0.63
2024-03-29T03:01:29.064Z,0.90
2024-03-29T03:02:18.681Z,0.93
2024-03-29T03:03:08.410Z,0.80
2024-03-29T03:03:58.035Z,0.93
2024-03-29T03:04:47.752Z,0.83
2024-03-29T03:05:37.265Z,1.00
2024-03-29T03:06:26.969Z,1.07
2024-03-29T03:07:34.894Z,1.00
2024-03-29T03:08:43.012Z,0.97
2024-03-29T03:09:51.080Z,1.07
2024-03-29T03:11:01.820Z,1.07
2024-03-29T03:11:51.257Z,1.10
2024-03-29T03:12:40.930Z,0.90
2024-03-29T03:13:30.924Z,0.97
2024-03-29T03:14:20.257Z,1.30
2024-03-29T03:15:09.577Z,1.53
2024-03-29T03:15:59.426Z,1.23
2024-03-29T03:16:48.652Z,1.27
2024-03-29T03:17:37.976Z,1.10
2024-03-29T03:18:27.356Z,1.13
2024-03-29T03:19:17.040Z,1.20
2024-03-29T03:20:07.083Z,1.17
2024-03-29T03:20:59.967Z,1.23
2024-03-29T03:21:50.896Z,1.17
2024-03-29T03:22:40.244Z,1.00
2024-03-29T03:23:29.533Z,1.17
2024-03-29T03:24:19.361Z,1.13
2024-03-29T03:25:08.884Z,1.00
2024-03-29T03:26:00.323Z,1.23
2024-03-29T03:26:49.544Z,1.27
2024-03-29T03:27:38.854Z,1.57
2024-03-29T03:28:28.423Z,1.20
2024-03-29T03:29:18.517Z,1.03
2024-03-29T03:30:08.424Z,1.20
2024-03-29T03:30:58.080Z,1.43
2024-03-29T03:31:47.611Z,1.47
2024-03-29T03:32:37.344Z,1.13
2024-03-29T03:33:27.483Z,1.37
2024-03-29T03:34:16.712Z,1.33
2024-03-29T03:35:06.209Z,1.27
2024-03-29T03:35:55.596Z,1.13
2024-03-29T03:36:45.206Z,1.40
2024-03-29T03:37:34.484Z,1.37
2024-03-29T03:38:24.266Z,1.70
2024-03-29T03:39:14.360Z,1.33
2024-03-29T03:40:07.226Z,1.47
2024-03-29T03:40:56.647Z,1.67
2024-03-29T03:41:46.997Z,1.60
2024-03-29T03:42:36.222Z,1.37
2024-03-29T03:43:25.886Z,1.13
2024-03-29T03:44:15.216Z,1.37
2024-03-29T03:45:05.051Z,1.63
2024-03-29T03:45:59.957Z,1.33
2024-03-29T03:46:49.421Z,1.43
2024-03-29T03:47:39.230Z,1.70
2024-03-29T03:48:31.900Z,1.37
2024-03-29T03:49:21.143Z,1.40
2024-03-29T03:50:10.955Z,1.47
2024-03-29T03:51:00.358Z,1.53
2024-03-29T03:51:49.893Z,1.77
2024-03-29T03:52:39.501Z,1.57
2024-03-29T03:53:28.843Z,1.87
2024-03-29T03:54:18.497Z,1.60
2024-03-29T03:55:07.879Z,1.67
2024-03-29T03:55:57.330Z,1.37
2024-03-29T03:56:46.983Z,2.03
2024-03-29T03:57:36.306Z,1.73
2024-03-29T03:58:26.098Z,1.80
2024-03-29T03:59:15.749Z,1.83
2024-03-29T04:00:06.356Z,1.53
2024-03-29T04:00:55.602Z,1.87
2024-03-29T04:01:45.197Z,1.77
2024-03-29T04:02:35.002Z,1.43
2024-03-29T04:03:24.336Z,1.43
2024-03-29T04:04:13.736Z,1.70
2024-03-29T04:05:03.067Z,1.57
2024-03-29T04:05:52.628Z,1.60
2024-03-29T04:06:41.898Z,1.70
2024-03-29T04:07:31.590Z,1.47
2024-03-29T04:08:20.892Z,1.27
2024-03-29T04:09:11.048Z,1.37
2024-03-29T04:10:00.653Z,1.53
2024-03-29T04:10:50.208Z,1.63
2024-03-29T04:11:39.680Z,1.27
2024-03-29T04:12:29.280Z,1.43
2024-03-29T04:13:18.925Z,1.60
2024-03-29T04:14:08.616Z,1.67
2024-03-29T04:14:58.109Z,1.57
2024-03-29T04:15:47.415Z,1.20
2024-03-29T04:16:36.754Z,1.20
2024-03-29T04:17:26.300Z,1.83
2024-03-29T04:18:15.882Z,1.93
2024-03-29T04:19:05.100Z,1.67
2024-03-29T04:19:54.361Z,1.50
2024-03-29T04:20:43.657Z,1.87
2024-03-29T04:21:33.104Z,1.80
2024-03-29T04:22:23.151Z,1.90
2024-03-29T04:23:12.644Z,1.73
2024-03-29T04:24:01.964Z,1.73
2024-03-29T04:24:51.611Z,1.73
2024-03-29T04:25:40.882Z,1.87
2024-03-29T04:26:30.827Z,1.93
2024-03-29T04:27:20.244Z,1.60
2024-03-29T04:28:09.695Z,2.10
2024-03-29T04:28:59.510Z,1.77
2024-03-29T04:29:55.367Z,1.63
2024-03-29T04:30:58.684Z,1.37
2024-03-29T04:31:48.449Z,1.40
2024-03-29T04:32:37.851Z,1.17
2024-03-29T04:33:27.625Z,1.67
2024-03-29T04:34:17.213Z,1.30
2024-03-29T04:35:07.165Z,1.10
2024-03-29T04:36:03.146Z,1.13
2024-03-29T04:36:52.330Z,1.50
2024-03-29T04:37:41.730Z,1.40
2024-03-29T04:38:32.176Z,1.57
2024-03-29T04:39:22.506Z,1.10
2024-03-29T04:40:11.914Z,1.60
2024-03-29T04:41:01.314Z,1.50
2024-03-29T04:41:51.069Z,1.27
2024-03-29T04:42:40.825Z,1.23
2024-03-29T04:43:30.232Z,1.47
2024-03-29T04:44:27.053Z,1.43
2024-03-29T04:45:16.520Z,1.20
2024-03-29T04:46:10.949Z,1.17
2024-03-29T04:47:01.493Z,1.50
2024-03-29T04:47:50.841Z,1.23
2024-03-29T04:48:41.678Z,1.17
2024-03-29T04:49:34.782Z,1.17
2024-03-29T04:50:24.459Z,1.20
2024-03-29T04:51:13.868Z,1.47
2024-03-29T04:52:06.179Z,1.23
2024-03-29T04:52:55.499Z,1.47
2024-03-29T04:53:44.744Z,1.33
2024-03-29T04:54:34.449Z,1.27
2024-03-29T04:55:23.955Z,1.17
2024-03-29T04:56:13.621Z,1.20
2024-03-29T04:57:06.121Z,1.20
2024-03-29T04:57:55.332Z,1.17
2024-03-29T04:58:46.171Z,1.20
2024-03-29T04:59:35.838Z,1.47
2024-03-29T05:00:25.502Z,1.20
2024-03-29T05:01:14.734Z,1.20
2024-03-29T05:02:04.445Z,1.10
2024-03-29T05:02:53.922Z,1.50
2024-03-29T05:03:43.096Z,1.43
2024-03-29T05:04:32.893Z,1.27
2024-03-29T05:05:22.408Z,1.20
2024-03-29T05:06:11.637Z,1.03
2024-03-29T05:07:01.313Z,1.30
2024-03-29T05:07:50.812Z,1.40
2024-03-29T05:08:40.340Z,1.23
2024-03-29T05:09:31.049Z,0.90
2024-03-29T05:10:22.774Z,1.47
2024-03-29T05:11:14.821Z,1.30
2024-03-29T05:12:04.699Z,1.30
2024-03-29T05:12:54.515Z,1.23
2024-03-29T05:13:43.933Z,1.03
2024-03-29T05:14:33.161Z,0.93
2024-03-29T05:15:22.740Z,1.10
2024-03-29T05:16:12.307Z,1.13
2024-03-29T05:17:02.397Z,1.23
2024-03-29T05:17:51.688Z,1.23
2024-03-29T05:18:41.481Z,1.07
2024-03-29T05:19:30.837Z,1.10
2024-03-29T05:20:20.513Z,1.07
2024-03-29T05:21:10.163Z,1.10
2024-03-29T05:22:00.820Z,1.10
2024-03-29T05:22:50.316Z,1.13
2024-03-29T05:23:39.820Z,1.07
2024-03-29T05:24:29.782Z,1.00
2024-03-29T05:25:19.241Z,1.37
2024-03-29T05:26:08.977Z,1.23
2024-03-29T05:26:58.336Z,1.03
2024-03-29T05:27:48.273Z,1.00
2024-03-29T05:28:37.685Z,1.17
2024-03-29T05:29:27.270Z,1.10
2024-03-29T05:30:16.683Z,1.03
2024-03-29T05:31:16.364Z,1.17
2024-03-29T05:32:06.977Z,1.00
2024-03-29T05:32:56.368Z,1.03
2024-03-29T05:33:45.854Z,1.30
2024-03-29T05:34:35.514Z,1.03
2024-03-29T05:35:24.860Z,1.17
2024-03-29T05:36:14.670Z,1.40
2024-03-29T05:37:05.068Z,1.43
2024-03-29T05:37:54.867Z,1.30
2024-03-29T05:38:44.965Z,1.33
2024-03-29T05:39:34.222Z,1.10
2024-03-29T05:40:25.420Z,1.13
2024-03-29T05:41:15.148Z,1.20
2024-03-29T05:42:04.618Z,1.37
2024-03-29T05:42:55.036Z,1.23
2024-03-29T05:43:44.398Z,1.20
2024-03-29T05:44:36.332Z,1.20
2024-03-29T05:45:29.905Z,1.10
2024-03-29T05:46:19.366Z,1.20
2024-03-29T05:47:08.594Z,1.17
2024-03-29T05:47:59.053Z,1.27
2024-03-29T05:48:48.398Z,1.20
2024-03-29T05:49:38.122Z,0.93
2024-03-29T05:50:28.058Z,1.13
2024-03-29T05:51:17.779Z,0.87
2024-03-29T05:52:07.126Z,1.23
2024-03-29T05:52:57.009Z,1.13
2024-03-29T05:53:46.644Z,0.97
2024-03-29T05:54:36.028Z,1.07
2024-03-29T05:55:26.017Z,1.17
2024-03-29T05:56:15.267Z,1.03
2024-03-29T05:57:06.565Z,1.00
2024-03-29T05:57:55.913Z,1.00
2024-03-29T05:58:45.660Z,1.00
2024-03-29T05:59:35.478Z,1.20
2024-03-29T06:00:25.291Z,1.63
2024-03-29T06:01:14.965Z,1.30
2024-03-29T06:02:04.756Z,1.23
2024-03-29T06:02:54.692Z,1.20
2024-03-29T06:03:44.155Z,1.13
2024-03-29T06:04:35.115Z,0.97
2024-03-29T06:05:25.187Z,0.90
2024-03-29T06:06:17.979Z,0.93
2024-03-29T06:07:08.312Z,1.27
2024-03-29T06:07:57.729Z,1.10
2024-03-29T06:08:47.109Z,0.90
2024-03-29T06:09:36.620Z,1.00
2024-03-29T06:10:25.830Z,0.97
2024-03-29T06:11:15.295Z,0.93
2024-03-29T06:12:05.462Z,1.10
2024-03-29T06:12:54.654Z,0.87
2024-03-29T06:13:53.240Z,0.73
2024-03-29T06:15:01.096Z,0.97
2024-03-29T06:16:09.344Z,1.20
2024-03-29T06:17:17.857Z,0.90
2024-03-29T06:18:07.921Z,0.93
2024-03-29T06:18:57.425Z,1.33
2024-03-29T06:19:48.126Z,1.07
2024-03-29T06:20:37.708Z,1.03
2024-03-29T06:21:27.821Z,0.90
2024-03-29T06:22:18.027Z,0.87
2024-03-29T06:23:09.212Z,0.97
2024-03-29T06:23:59.073Z,0.93
2024-03-29T06:24:48.903Z,0.80
2024-03-29T06:25:39.172Z,0.67
2024-03-29T06:26:28.736Z,0.93
2024-03-29T06:27:20.580Z,0.80
2024-03-29T06:28:10.263Z,0.87
2024-03-29T06:29:00.780Z,1.03
2024-03-29T06:29:50.285Z,0.93
2024-03-29T06:30:41.257Z,1.07
2024-03-29T06:31:30.802Z,1.00
2024-03-29T06:32:20.895Z,1.03
2024-03-29T06:33:10.341Z,0.90
2024-03-29T06:34:00.358Z,0.80
2024-03-29T06:34:49.863Z,1.00
2024-03-29T06:35:39.408Z,0.97
2024-03-29T06:36:31.198Z,0.93
2024-03-29T06:37:25.639Z,0.80
2024-03-29T06:38:15.568Z,0.87
2024-03-29T06:39:05.349Z,0.87
2024-03-29T06:39:55.086Z,0.90
2024-03-29T06:40:44.555Z,0.90
2024-03-29T06:41:34.026Z,1.00
2024-03-29T06:42:23.588Z,1.20
2024-03-29T06:43:13.332Z,0.93
2024-03-29T06:44:02.758Z,0.93
2024-03-29T06:44:54.606Z,0.90
2024-03-29T06:45:44.598Z,0.93
2024-03-29T06:46:34.321Z,0.93
2024-03-29T06:47:24.300Z,0.80
2024-03-29T06:48:14.050Z,0.97
2024-03-29T06:49:04.413Z,0.90
2024-03-29T06:49:54.101Z,1.17
2024-03-29T06:50:43.695Z,0.93
2024-03-29T06:51:32.907Z,0.70
2024-03-29T06:52:22.528Z,0.83
2024-03-29T06:53:11.860Z,0.97
2024-03-29T06:54:01.199Z,0.97
2024-03-29T06:54:51.317Z,0.93
2024-03-29T06:55:40.555Z,1.03
2024-03-29T06:56:30.269Z,0.80
2024-03-29T06:57:23.245Z,1.03
2024-03-29T06:58:12.563Z,0.90
2024-03-29T06:59:02.057Z,0.93
2024-03-29T06:59:51.802Z,0.90
2024-03-29T07:00:41.438Z,1.00
2024-03-29T07:01:31.195Z,1.00
2024-03-29T07:02:20.727Z,0.83
2024-03-29T07:03:09.976Z,1.07
2024-03-29T07:03:59.608Z,0.83
2024-03-29T07:04:52.193Z,0.90
2024-03-29T07:05:41.862Z,1.00
2024-03-29T07:06:31.611Z,1.00
2024-03-29T07:07:20.831Z,1.07
2024-03-29T07:08:10.143Z,1.00
2024-03-29T07:08:59.476Z,1.00
2024-03-29T07:09:49.048Z,0.90
2024-03-29T07:10:38.646Z,0.83
2024-03-29T07:11:27.970Z,1.00
2024-03-29T07:12:17.980Z,0.87
2024-03-29T07:13:08.342Z,0.77
2024-03-29T07:13:58.022Z,0.83
2024-03-29T07:14:47.947Z,1.07
2024-03-29T07:15:37.676Z,0.93
2024-03-29T07:16:27.281Z,0.77
2024-03-29T07:17:16.852Z,1.03
2024-03-29T07:18:06.626Z,1.10
2024-03-29T07:18:55.843Z,1.07
2024-03-29T07:19:45.243Z,0.97
2024-03-29T07:20:34.932Z,1.00
2024-03-29T07:21:25.041Z,0.87
2024-03-29T07:22:23.759Z,1.00
2024-03-29T07:23:21.132Z,0.97
2024-03-29T07:24:10.800Z,1.10
2024-03-29T07:25:00.389Z,0.77
2024-03-29T07:26:01.248Z,0.87
2024-03-29T07:26:50.971Z,0.80
2024-03-29T07:27:41.321Z,0.93
2024-03-29T07:28:31.771Z,0.93
2024-03-29T07:29:21.151Z,0.93
2024-03-29T07:30:11.195Z,1.03
2024-03-29T07:31:09.211Z,1.03
2024-03-29T07:31:58.500Z,0.93
2024-03-29T07:32:47.865Z,0.87
2024-03-29T07:33:37.391Z,1.00
2024-03-29T07:34:26.658Z,1.10
2024-03-29T07:35:18.540Z,1.03
2024-03-29T07:36:10.793Z,1.00
2024-03-29T07:37:00.261Z,0.77
2024-03-29T07:37:51.277Z,1.07
2024-03-29T07:38:40.610Z,1.13
2024-03-29T07:39:30.332Z,0.93
2024-03-29T07:40:19.804Z,0.90
2024-03-29T07:41:10.135Z,1.07
2024-03-29T07:41:59.369Z,1.07
2024-03-29T07:42:48.599Z,1.47
2024-03-29T07:43:50.807Z,1.27
2024-03-29T07:44:39.999Z,1.00
2024-03-29T07:45:29.791Z,0.80
2024-03-29T07:46:19.081Z,0.67
2024-03-29T07:47:08.621Z,0.67
2024-03-29T07:47:58.182Z,0.90
2024-03-29T07:48:48.464Z,0.97
2024-03-29T07:49:37.998Z,0.93
2024-03-29T07:50:27.444Z,1.20
2024-03-29T07:51:16.935Z,0.73
2024-03-29T07:52:07.978Z,0.87
2024-03-29T07:52:57.441Z,0.93
2024-03-29T07:53:46.961Z,0.87
2024-03-29T07:54:36.827Z,0.80
2024-03-29T07:55:26.494Z,0.87
2024-03-29T07:56:16.978Z,1.00
2024-03-29T07:57:08.681Z,0.93
2024-03-29T07:57:58.337Z,1.03
2024-03-29T07:58:54.124Z,0.97
2024-03-29T07:59:43.359Z,0.77
2024-03-29T08:00:33.220Z,0.80
2024-03-29T08:01:27.043Z,0.87
2024-03-29T08:02:21.172Z,0.77
2024-03-29T08:03:11.709Z,0.90
2024-03-29T08:04:00.998Z,0.67
2024-03-29T08:04:52.812Z,0.60
2024-03-29T08:05:42.212Z,0.67
2024-03-29T08:06:31.793Z,0.77
2024-03-29T08:07:21.606Z,0.60
2024-03-29T08:08:11.270Z,0.80
2024-03-29T08:09:00.619Z,0.97
2024-03-29T08:09:50.808Z,0.90
2024-03-29T08:10:40.087Z,0.60
2024-03-29T08:11:29.513Z,0.67
2024-03-29T08:12:19.732Z,0.50
2024-03-29T08:13:09.500Z,0.80
2024-03-29T08:13:58.743Z,0.67
2024-03-29T08:14:48.698Z,0.93
2024-03-29T08:15:38.078Z,1.13
2024-03-29T08:16:28.570Z,0.70
2024-03-29T08:17:18.226Z,0.87
2024-03-29T08:18:07.943Z,1.10
2024-03-29T08:18:57.818Z,0.77
2024-03-29T08:19:48.080Z,0.77
2024-03-29T08:20:37.952Z,0.67
2024-03-29T08:21:27.807Z,0.50
2024-03-29T08:22:17.247Z,0.70
2024-03-29T08:23:06.594Z,0.57
2024-03-29T08:23:56.453Z,0.73
2024-03-29T08:24:45.993Z,0.70
2024-03-29T08:25:35.546Z,0.73
2024-03-29T08:26:25.168Z,1.07
2024-03-29T08:27:15.358Z,0.80
2024-03-29T08:28:04.675Z,0.87
2024-03-29T08:28:54.252Z,0.90
2024-03-29T08:29:43.971Z,0.70
2024-03-29T08:30:36.602Z,0.70
2024-03-29T08:31:25.966Z,0.70
2024-03-29T08:32:15.403Z,0.57
2024-03-29T08:33:05.019Z,0.73
2024-03-29T08:34:02.373Z,0.77
2024-03-29T08:34:52.739Z,0.60
2024-03-29T08:35:43.564Z,0.90
2024-03-29T08:36:32.946Z,0.80
2024-03-29T08:37:22.832Z,0.73
2024-03-29T08:38:13.340Z,0.50
2024-03-29T08:39:02.682Z,0.60
2024-03-29T08:39:52.013Z,0.73
2024-03-29T08:40:43.697Z,0.70
2024-03-29T08:41:33.130Z,0.63
2024-03-29T08:42:23.319Z,0.57
2024-03-29T08:43:12.795Z,0.80
2024-03-29T08:44:02.782Z,0.73
2024-03-29T08:44:53.108Z,0.60
2024-03-29T08:45:42.857Z,0.77
2024-03-29T08:46:32.131Z,0.80
2024-03-29T08:47:22.241Z,0.43
2024-03-29T08:48:14.075Z,0.50
2024-03-29T08:49:03.795Z,0.70
2024-03-29T08:49:53.042Z,0.57
2024-03-29T08:50:42.362Z,0.63
2024-03-29T08:51:32.042Z,0.63
2024-03-29T08:52:22.273Z,0.97
2024-03-29T08:53:11.788Z,1.47
2024-03-29T08:54:04.984Z,1.80
2024-03-29T08:54:54.484Z,1.67
2024-03-29T08:55:46.706Z,0.97
2024-03-29T08:56:37.127Z,0.87
2024-03-29T08:57:26.802Z,1.10
2024-03-29T08:58:16.418Z,0.93
2024-03-29T08:59:09.089Z,0.83
2024-03-29T08:59:58.788Z,0.60
2024-03-29T09:00:58.094Z,0.47
2024-03-29T09:01:52.921Z,0.60
2024-03-29T09:02:42.301Z,0.67
2024-03-29T09:03:31.817Z,0.60
2024-03-29T09:04:21.170Z,0.63
2024-03-29T09:05:10.867Z,0.60
2024-03-29T09:06:00.194Z,0.60
2024-03-29T09:06:49.782Z,0.60
2024-03-29T09:07:41.010Z,0.63
2024-03-29T09:08:30.553Z,0.67
2024-03-29T09:09:20.279Z,0.60
2024-03-29T09:10:09.851Z,0.57
2024-03-29T09:11:01.149Z,0.43
2024-03-29T09:11:50.460Z,0.57
2024-03-29T09:12:39.796Z,0.50
2024-03-29T09:13:30.625Z,0.43
2024-03-29T09:14:20.344Z,0.43
2024-03-29T09:15:13.434Z,0.53
2024-03-29T09:16:03.143Z,0.53
2024-03-29T09:16:52.776Z,0.63
2024-03-29T09:17:46.268Z,0.57
2024-03-29T09:18:35.545Z,0.67
2024-03-29T09:19:25.319Z,0.50
2024-03-29T09:20:15.217Z,0.70
2024-03-29T09:21:04.930Z,0.80
2024-03-29T09:21:54.681Z,0.87
2024-03-29T09:22:44.767Z,0.87
2024-03-29T09:23:34.353Z,0.47
2024-03-29T09:24:25.897Z,0.53
2024-03-29T09:25:15.648Z,0.40
2024-03-29T09:26:05.548Z,0.47
2024-03-29T09:26:55.107Z,0.40
2024-03-29T09:27:48.585Z,0.83
2024-03-29T09:28:38.209Z,1.00
2024-03-29T09:29:27.655Z,0.77
2024-03-29T09:30:18.788Z,0.63
2024-03-29T09:31:09.069Z,0.57
2024-03-29T09:31:59.144Z,0.70
2024-03-29T09:32:50.107Z,0.53
2024-03-29T09:33:39.260Z,0.43
2024-03-29T09:34:28.854Z,0.60
2024-03-29T09:35:19.263Z,0.60
2024-03-29T09:36:11.028Z,0.43
2024-03-29T09:37:00.592Z,0.47
2024-03-29T09:37:50.350Z,0.37
2024-03-29T09:38:39.601Z,0.63
2024-03-29T09:39:28.923Z,0.53
2024-03-29T09:40:18.667Z,0.60
2024-03-29T09:41:14.561Z,0.50
2024-03-29T09:42:04.220Z,0.87
2024-03-29T09:43:03.524Z,0.67
2024-03-29T09:43:54.978Z,0.60
2024-03-29T09:44:46.051Z,0.77
2024-03-29T09:45:36.750Z,0.57
2024-03-29T09:46:27.744Z,0.70
2024-03-29T09:47:18.036Z,0.50
2024-03-29T09:48:08.973Z,0.37
2024-03-29T09:48:59.390Z,0.40
2024-03-29T09:49:50.448Z,0.43
2024-03-29T09:50:39.892Z,0.37
2024-03-29T09:51:29.839Z,0.40
2024-03-29T09:52:20.183Z,0.47
2024-03-29T09:53:09.654Z,0.40
2024-03-29T09:54:04.604Z,0.43
2024-03-29T09:54:56.551Z,0.37
2024-03-29T09:55:46.563Z,0.23
2024-03-29T09:56:36.228Z,0.43
2024-03-29T09:57:29.604Z,0.60
2024-03-29T09:58:19.312Z,0.43
2024-03-29T09:59:09.034Z,0.47
2024-03-29T09:59:58.422Z,0.50
2024-03-29T10:00:48.036Z,0.73
2024-03-29T10:01:37.757Z,0.60
2024-03-29T10:02:31.555Z,0.67
2024-03-29T10:03:23.472Z,0.57
2024-03-29T10:04:15.237Z,0.53
2024-03-29T10:05:07.415Z,0.40
2024-03-29T10:06:00.575Z,0.43
2024-03-29T10:06:50.786Z,0.50
2024-03-29T10:07:41.693Z,0.50
2024-03-29T10:08:31.359Z,0.43
2024-03-29T10:09:22.531Z,0.43
2024-03-29T10:10:12.079Z,1.07
2024-03-29T10:11:01.947Z,1.30
2024-03-29T10:11:51.617Z,2.13
2024-03-29T10:12:41.740Z,1.60
2024-03-29T10:13:30.823Z,0.67
2024-03-29T10:14:22.731Z,0.67
2024-03-29T10:15:16.487Z,0.50
2024-03-29T10:16:05.890Z,0.47
2024-03-29T10:16:55.455Z,0.53
2024-03-29T10:17:50.575Z,0.63
2024-03-29T10:18:44.318Z,0.57
2024-03-29T10:19:33.485Z,0.60
2024-03-29T10:20:23.509Z,0.27
2024-03-29T10:21:13.435Z,0.33
2024-03-29T10:22:06.821Z,0.47
2024-03-29T10:23:01.963Z,0.83
2024-03-29T10:23:52.401Z,0.70
2024-03-29T10:24:42.071Z,0.47
2024-03-29T10:25:34.611Z,0.50
2024-03-29T10:26:25.275Z,0.30
2024-03-29T10:27:14.731Z,0.43
2024-03-29T10:28:04.468Z,0.37
2024-03-29T10:28:54.679Z,0.40
2024-03-29T10:29:44.049Z,0.37
2024-03-29T10:30:33.650Z,0.33
2024-03-29T10:31:23.369Z,0.40
2024-03-29T10:32:13.167Z,0.53
2024-03-29T10:33:03.806Z,0.50
2024-03-29T10:33:54.836Z,0.60
2024-03-29T10:34:47.457Z,0.50
2024-03-29T10:35:36.957Z,1.23
2024-03-29T10:36:26.534Z,0.80
2024-03-29T10:37:25.424Z,0.63
2024-03-29T10:38:14.639Z,0.53
2024-03-29T10:39:12.705Z,0.43
2024-03-29T10:40:04.599Z,0.47
2024-03-29T10:40:54.360Z,0.63
2024-03-29T10:41:49.646Z,0.87
2024-03-29T10:42:41.731Z,0.47
2024-03-29T10:43:31.269Z,0.43
2024-03-29T10:44:21.110Z,0.40
2024-03-29T10:45:10.558Z,0.47
2024-03-29T10:46:00.921Z,0.43
2024-03-29T10:46:50.677Z,0.53
2024-03-29T10:47:44.159Z,0.40
2024-03-29T10:48:36.230Z,0.43
2024-03-29T10:49:28.218Z,0.63
2024-03-29T10:50:17.716Z,0.70
2024-03-29T10:51:07.734Z,0.67
2024-03-29T10:51:58.914Z,0.43
2024-03-29T10:52:48.927Z,0.50
2024-03-29T10:53:38.688Z,0.53
2024-03-29T10:54:28.469Z,0.40
2024-03-29T10:55:17.820Z,0.40
2024-03-29T10:56:08.312Z,0.57
2024-03-29T10:57:06.852Z,0.57
2024-03-29T10:57:58.287Z,0.50
2024-03-29T10:58:50.567Z,0.63
2024-03-29T10:59:52.699Z,0.50
2024-03-29T11:00:46.863Z,0.63
2024-03-29T11:01:38.921Z,0.53
2024-03-29T11:02:50.858Z,0.53
2024-03-29T11:03:51.197Z,0.83
2024-03-29T11:04:42.438Z,0.57
2024-03-29T11:05:33.006Z,0.67
2024-03-29T11:06:28.059Z,0.53
2024-03-29T11:07:23.708Z,0.63
2024-03-29T11:08:16.174Z,0.60
2024-03-29T11:09:10.179Z,0.57
2024-03-29T11:10:00.999Z,0.53
2024-03-29T11:10:52.030Z,0.47
2024-03-29T11:11:49.710Z,0.73
2024-03-29T11:12:58.181Z,0.87
2024-03-29T11:14:03.889Z,0.80